< < Back
Terminal Aerodrome Forecast


Current Version              Previous Versions:   1  2  3  4  5  6  7  8  9  

Terminal Aerodrome Forecast

136
FTUS44 KMRX 181120
TAFTYS
TAF
KTYS 181120Z 1812/1912 02003KT P6SM VCSH OVC100
     FM181600 34003KT P6SM BKN050 OVC090
     FM190300 00000KT P6SM SCT050 SCT250=



Latest METAR

271
SAUS80 KWBC 181800 RRA
MTRTYS
METAR KTYS 181753Z 00000KT 10SM BKN070 BKN130 05/M02 A3016 RMK AO2
SLP217 60000 T00501017 10050 20006 58014


USA.gov is the U.S. government's official web portal to all federal, state and local government web resources and services.